Time,TemperatureF,DewpointF,PressureIn,WindDirection,WindDirectionDegrees,WindSpeedMPH,WindSpeedGustMPH,Humidity,HourlyPrecipIn,Conditions,Clouds,dailyrainin,SoftwareType,DateUTC
2013-08-02 00:02:00,71.7,53.1,29.78,ENE,68,3.0,7.0,52,0.00,CLR,,0.00,WeatherDisplay:10.37,2013-08-02 08:02:00,
2013-08-02 00:17:00,71.6,52.5,29.78,ENE,73,3.0,7.0,51,0.00,CLR,,0.00,WeatherDisplay:10.37,2013-08-02 08:17:00,
2013-08-02 00:32:00,71.5,52.4,29.78,ENE,67,5.0,8.0,51,0.00,CLR,,0.00,WeatherDisplay:10.37,2013-08-02 08:32:00,
2013-08-02 00:47:00,71.5,52.4,29.78,ENE,72,3.0,9.0,51,0.00,CLR,,0.00,WeatherDisplay:10.37,2013-08-02 08:47:00,
2013-08-02 01:02:00,71.5,52.4,29.78,East,83,3.0,8.0,51,0.00,CLR,,0.00,WeatherDisplay:10.37,2013-08-02 09:02:00,
2013-08-02 01:17:00,71.6,52.5,29.78,ENE,70,5.0,9.0,51,0.00,CLR,,0.00,WeatherDisplay:10.37,2013-08-02 09:17:00,
2013-08-02 01:32:00,71.6,52.5,29.78,ENE,73,5.0,10.0,51,0.00,CLR,,0.00,WeatherDisplay:10.37,2013-08-02 09:32:00,
2013-08-02 01:47:00,71.8,52.1,29.78,ENE,70,7.0,12.0,50,0.00,CLR,,0.00,WeatherDisplay:10.37,2013-08-02 09:47:00,
2013-08-02 02:02:00,71.8,52.2,29.79,East,85,6.0,11.0,50,0.00,CLR,,0.00,WeatherDisplay:10.37,2013-08-02 10:02:00,
2013-08-02 02:17:00,71.5,52.4,29.79,East,82,5.0,9.0,51,0.00,CLR,,0.00,WeatherDisplay:10.37,2013-08-02 10:17:00,
2013-08-02 02:32:00,71.1,52.6,29.79,East,90,3.0,10.0,52,0.00,CLR,,0.00,WeatherDisplay:10.37,2013-08-02 10:32:00,
2013-08-02 02:47:00,70.7,52.2,29.79,East,81,0.0,8.0,52,0.00,CLR,,0.00,WeatherDisplay:10.37,2013-08-02 10:47:00,
2013-08-02 03:02:00,70.4,51.9,29.79,ENE,78,2.0,6.0,52,0.00,CLR,,0.00,WeatherDisplay:10.37,2013-08-02 11:02:00,
2013-08-02 03:17:00,69.9,51.5,29.80,NE,47,0.0,5.0,52,0.00,CLR,,0.00,WeatherDisplay:10.37,2013-08-02 11:17:00,
2013-08-02 03:32:00,69.4,52.0,29.80,ENE,67,5.0,7.0,54,0.00,CLR,,0.00,WeatherDisplay:10.37,2013-08-02 11:32:00,
2013-08-02 03:47:00,68.9,52.1,29.80,ENE,67,2.0,9.0,55,0.00,CLR,,0.00,WeatherDisplay:10.37,2013-08-02 11:47:00,
2013-08-02 04:02:00,68.6,52.2,29.80,ENE,76,5.0,8.0,56,0.00,CLR,,0.00,WeatherDisplay:10.37,2013-08-02 12:02:00,
2013-08-02 04:17:00,68.3,52.5,29.81,ENE,72,5.0,10.0,57,0.00,CLR,,0.00,WeatherDisplay:10.37,2013-08-02 12:17:00,
2013-08-02 04:32:00,67.8,52.5,29.81,ENE,76,5.0,10.0,58,0.00,CLR,,0.00,WeatherDisplay:10.37,2013-08-02 12:32:00,
2013-08-02 04:47:00,67.3,52.5,29.81,East,86,3.0,9.0,59,0.00,CLR,,0.00,WeatherDisplay:10.37,2013-08-02 12:47:00,
2013-08-02 05:02:00,66.9,52.6,29.82,East,79,5.0,8.0,60,0.00,CLR,,0.00,WeatherDisplay:10.37,2013-08-02 13:02:00,
2013-08-02 05:17:00,66.9,53.0,29.82,ENE,71,5.0,8.0,61,0.00,CLR,,0.00,WeatherDisplay:10.37,2013-08-02 13:17:00,
2013-08-02 05:32:00,66.9,53.0,29.82,ENE,77,6.0,8.0,61,0.00,CLR,,0.00,WeatherDisplay:10.37,2013-08-02 13:32:00,
2013-08-02 05:47:00,66.7,52.8,29.82,ENE,71,5.0,9.0,61,0.00,CLR,,0.00,WeatherDisplay:10.37,2013-08-02 13:47:00,
2013-08-02 06:02:00,66.2,52.8,29.82,ENE,75,5.0,9.0,62,0.00,CLR,,0.00,WeatherDisplay:10.37,2013-08-02 14:02:00,
2013-08-02 06:17:00,65.7,53.2,29.82,ENE,75,5.0,9.0,64,0.00,CLR,,0.00,WeatherDisplay:10.37,2013-08-02 14:17:00,
2013-08-02 06:32:00,65.4,53.3,29.82,ENE,73,3.0,8.0,65,0.00,CLR,,0.00,WeatherDisplay:10.37,2013-08-02 14:32:00,
2013-08-02 06:47:00,65.3,53.2,29.82,East,87,6.0,9.0,65,0.00,CLR,,0.00,WeatherDisplay:10.37,2013-08-02 14:47:00,
2013-08-02 07:02:00,65.6,53.5,29.83,East,79,2.0,7.0,65,0.00,CLR,,0.00,WeatherDisplay:10.37,2013-08-02 15:02:00,
2013-08-02 07:17:00,66.1,54.0,29.83,NE,48,1.0,7.0,65,0.00,CLR,,0.00,WeatherDisplay:10.37,2013-08-02 15:17:00,
2013-08-02 07:32:00,66.1,54.4,29.83,ENE,77,0.0,2.0,66,0.00,CLR,,0.00,WeatherDisplay:10.37,2013-08-02 15:32:00,
2013-08-02 07:47:00,66.3,55.0,29.83,ENE,58,0.0,3.0,67,0.00,CLR,,0.00,WeatherDisplay:10.37,2013-08-02 15:47:00,
2013-08-02 08:02:00,67.0,55.2,29.84,NNE,33,0.0,2.0,66,0.00,CLR,,0.00,WeatherDisplay:10.37,2013-08-02 16:02:00,
2013-08-02 08:17:00,65.7,54.8,29.84,NNE,28,0.0,0.0,68,0.00,CLR,,0.00,WeatherDisplay:10.37,2013-08-02 16:17:00,
2013-08-02 08:32:00,65.6,54.7,29.84,WSW,237,0.0,3.0,68,0.00,CLR,,0.00,WeatherDisplay:10.37,2013-08-02 16:32:00,
2013-08-02 08:47:00,66.1,55.2,29.84,WSW,256,0.0,5.0,68,0.00,CLR,,0.00,WeatherDisplay:10.37,2013-08-02 16:47:00,
2013-08-02 09:02:00,66.9,55.6,29.84,West,271,0.0,2.0,67,0.00,CLR,,0.00,WeatherDisplay:10.37,2013-08-02 17:02:00,
2013-08-02 09:17:00,67.8,56.0,29.85,NE,56,0.0,1.0,66,0.00,CLR,,0.00,WeatherDisplay:10.37,2013-08-02 17:17:00,
2013-08-02 09:32:00,69.1,55.6,29.85,ENE,62,1.0,5.0,62,0.00,CLR,,0.00,WeatherDisplay:10.37,2013-08-02 17:32:00,
2013-08-02 09:47:00,69.8,55.8,29.85,ESE,115,2.0,5.0,61,0.00,CLR,,0.00,WeatherDisplay:10.37,2013-08-02 17:47:00,
2013-08-02 10:02:00,70.5,55.5,29.85,ESE,113,0.0,6.0,59,0.00,CLR,,0.00,WeatherDisplay:10.37,2013-08-02 18:02:00,
2013-08-02 10:17:00,70.9,54.4,29.85,SE,141,2.0,5.0,56,0.00,CLR,,0.00,WeatherDisplay:10.37,2013-08-02 18:17:00,
2013-08-02 10:32:00,71.8,53.2,29.84,SSE,168,5.0,9.0,52,0.00,CLR,,0.00,WeatherDisplay:10.37,2013-08-02 18:32:00,
2013-08-02 10:47:00,72.4,53.8,29.85,South,176,3.0,7.0,52,0.00,CLR,,0.00,WeatherDisplay:10.37,2013-08-02 18:47:00,
2013-08-02 11:00:00,72.7,53.6,29.84,SW,228,0.0,5.0,51,0.00,CLR,,0.00,WeatherDisplay:10.37,2013-08-02 19:00:00,
2013-08-02 11:15:00,72.8,54.1,29.84,SSE,157,2.0,5.0,52,0.00,CLR,,0.00,WeatherDisplay:10.37,2013-08-02 19:15:00,
2013-08-02 11:30:00,73.5,54.3,29.84,SSE,162,3.0,8.0,51,0.00,CLR,,0.00,WeatherDisplay:10.37,2013-08-02 19:30:00,
2013-08-02 11:45:00,74.1,54.2,29.84,SSW,207,1.0,7.0,50,0.00,CLR,,0.00,WeatherDisplay:10.37,2013-08-02 19:45:00,
2013-08-02 12:00:00,74.0,54.2,29.85,SSW,213,2.0,7.0,50,0.00,CLR,,0.00,WeatherDisplay:10.37,2013-08-02 20:00:00,
2013-08-02 12:15:00,73.5,54.3,29.84,West,274,3.0,8.0,51,0.00,CLR,,0.00,WeatherDisplay:10.37,2013-08-02 20:15:00,
2013-08-02 12:30:00,74.3,55.0,29.84,WSW,253,2.0,7.0,51,0.00,CLR,,0.00,WeatherDisplay:10.37,2013-08-02 20:30:00,
2013-08-02 12:45:00,75.0,54.0,29.84,West,259,3.0,9.0,48,0.00,CLR,,0.00,WeatherDisplay:10.37,2013-08-02 20:45:00,
2013-08-02 13:00:00,75.7,52.2,29.84,SW,235,5.0,9.0,44,0.00,CLR,,0.00,WeatherDisplay:10.37,2013-08-02 21:00:00,
2013-08-02 13:15:00,76.1,52.6,29.84,WSW,244,2.0,10.0,44,0.00,CLR,,0.00,WeatherDisplay:10.37,2013-08-02 21:15:00,
2013-08-02 13:30:00,76.1,50.7,29.83,WSW,243,6.0,11.0,41,0.00,CLR,,0.00,WeatherDisplay:10.37,2013-08-02 21:30:00,
2013-08-02 13:45:00,76.9,50.7,29.83,WSW,243,3.0,10.0,40,0.00,CLR,,0.00,WeatherDisplay:10.37,2013-08-02 21:45:00,
2013-08-02 14:00:00,76.9,49.4,29.83,SW,220,6.0,13.0,38,0.00,CLR,,0.00,WeatherDisplay:10.37,2013-08-02 22:00:00,
2013-08-02 14:15:00,76.9,48.6,29.82,WSW,241,6.0,14.0,37,0.00,CLR,,0.00,WeatherDisplay:10.37,2013-08-02 22:15:00,
2013-08-02 14:30:00,76.9,48.6,29.82,West,273,5.0,10.0,37,0.00,CLR,,0.00,WeatherDisplay:10.37,2013-08-02 22:30:00,
2013-08-02 14:45:00,76.9,47.9,29.82,West,262,5.0,14.0,36,0.00,CLR,,0.00,WeatherDisplay:10.37,2013-08-02 22:45:00,
2013-08-02 15:00:00,76.9,47.9,29.81,SW,233,3.0,9.0,36,0.00,CLR,,0.00,WeatherDisplay:10.37,2013-08-02 23:00:00,
2013-08-02 15:15:00,76.9,47.2,29.81,WSW,248,7.0,10.0,35,0.00,CLR,,0.00,WeatherDisplay:10.37,2013-08-02 23:15:00,
2013-08-02 15:30:00,76.9,47.2,29.81,WSW,237,6.0,12.0,35,0.00,CLR,,0.00,WeatherDisplay:10.37,2013-08-02 23:30:00,
2013-08-02 15:45:00,76.9,47.2,29.80,SSW,208,3.0,13.0,35,0.00,CLR,,0.00,WeatherDisplay:10.37,2013-08-02 23:45:00,
2013-08-02 16:00:00,76.9,44.8,29.80,WSW,255,2.0,13.0,32,0.00,CLR,,0.00,WeatherDisplay:10.37,2013-08-03 00:00:00,
2013-08-02 16:15:00,76.9,45.6,29.79,SW,230,5.0,10.0,33,0.00,CLR,,0.00,WeatherDisplay:10.37,2013-08-03 00:15:00,
2013-08-02 16:30:00,76.9,44.8,29.79,SSW,201,3.0,12.0,32,0.00,CLR,,0.00,WeatherDisplay:10.37,2013-08-03 00:30:00,
2013-08-02 16:45:00,76.9,44.8,29.79,SW,219,5.0,10.0,32,0.00,CLR,,0.00,WeatherDisplay:10.37,2013-08-03 00:45:00,
2013-08-02 17:00:00,76.9,46.4,29.78,SW,234,3.0,8.0,34,0.00,CLR,,0.00,WeatherDisplay:10.37,2013-08-03 01:00:00,
2013-08-02 17:15:00,76.9,43.1,29.77,South,179,3.0,8.0,30,0.00,CLR,,0.00,WeatherDisplay:10.37,2013-08-03 01:15:00,
2013-08-02 17:30:00,76.9,42.2,29.77,South,187,1.0,9.0,29,0.00,CLR,,0.00,WeatherDisplay:10.37,2013-08-03 01:30:00,
2013-08-02 17:45:00,76.9,41.3,29.76,South,180,2.0,8.0,28,0.00,CLR,,0.00,WeatherDisplay:10.37,2013-08-03 01:45:00,
2013-08-02 18:00:00,76.9,43.1,29.76,South,172,2.0,9.0,30,0.00,CLR,,0.00,WeatherDisplay:10.37,2013-08-03 02:00:00,
2013-08-02 18:15:00,76.9,42.2,29.75,SW,223,1.0,7.0,29,0.00,CLR,,0.00,WeatherDisplay:10.37,2013-08-03 02:15:00,
2013-08-02 18:30:00,76.9,41.3,29.75,South,185,3.0,8.0,28,0.00,CLR,,0.00,WeatherDisplay:10.37,2013-08-03 02:30:00,
2013-08-02 18:45:00,76.9,42.2,29.74,WSW,244,5.0,8.0,29,0.00,CLR,,0.00,WeatherDisplay:10.37,2013-08-03 02:45:00,
2013-08-02 19:00:00,76.9,44.0,29.74,SW,232,5.0,7.0,31,0.00,CLR,,0.00,WeatherDisplay:10.37,2013-08-03 03:00:00,
2013-08-02 19:15:00,76.9,47.2,29.74,SW,231,1.0,6.0,35,0.00,CLR,,0.00,WeatherDisplay:10.37,2013-08-03 03:15:00,
2013-08-02 19:31:00,76.9,47.2,29.74,SW,223,0.0,5.0,35,0.00,CLR,,0.00,WeatherDisplay:10.37,2013-08-03 03:31:00,
2013-08-02 19:45:00,76.9,46.4,29.74,SSW,201,0.0,5.0,34,0.00,CLR,,0.00,WeatherDisplay:10.37,2013-08-03 03:45:00,
2013-08-02 20:00:00,76.9,47.9,29.73,SSE,159,0.0,2.0,36,0.00,CLR,,0.00,WeatherDisplay:10.37,2013-08-03 04:00:00,
2013-08-02 20:15:00,76.9,47.9,29.73,SE,137,0.0,1.0,36,0.00,CLR,,0.00,WeatherDisplay:10.37,2013-08-03 04:15:00,
2013-08-02 20:30:00,76.9,47.9,29.73,SE,137,0.0,0.0,36,0.00,CLR,,0.00,WeatherDisplay:10.37,2013-08-03 04:30:00,
2013-08-02 20:45:00,76.9,50.1,29.73,SE,137,0.0,0.0,39,0.00,CLR,,0.00,WeatherDisplay:10.37,2013-08-03 04:45:00,
2013-08-02 21:00:00,76.9,50.1,29.73,SE,137,0.0,0.0,39,0.00,CLR,,0.00,WeatherDisplay:10.37,2013-08-03 05:00:00,
2013-08-02 21:15:00,76.9,50.7,29.72,SE,137,0.0,0.0,40,0.00,CLR,,0.00,WeatherDisplay:10.37,2013-08-03 05:15:00,
2013-08-02 21:31:00,76.9,50.7,29.71,SE,137,0.0,0.0,40,0.00,CLR,,0.00,WeatherDisplay:10.37,2013-08-03 05:31:00,
2013-08-02 21:45:00,76.0,49.9,29.72,ESE,119,1.0,2.0,40,0.00,CLR,,0.00,WeatherDisplay:10.37,2013-08-03 05:45:00,
2013-08-02 22:00:00,75.3,49.9,29.71,ENE,69,2.0,3.0,41,0.00,CLR,,0.00,WeatherDisplay:10.37,2013-08-03 06:00:00,
2013-08-02 22:15:00,74.3,49.8,29.71,ENE,64,1.0,4.0,42,0.00,CLR,,0.00,WeatherDisplay:10.37,2013-08-03 06:15:00,
2013-08-02 22:30:00,73.7,49.1,29.71,NE,50,0.0,3.0,42,0.00,CLR,,0.00,WeatherDisplay:10.37,2013-08-03 06:30:00,
2013-08-02 22:45:00,73.4,48.9,29.71,ENE,73,1.0,3.0,42,0.00,CLR,,0.00,WeatherDisplay:10.37,2013-08-03 06:45:00,
2013-08-02 23:00:00,73.0,48.6,29.71,ENE,66,0.0,3.0,42,0.00,CLR,,0.00,WeatherDisplay:10.37,2013-08-03 07:00:00,
2013-08-02 23:15:00,73.0,48.5,29.70,ENE,65,1.0,3.0,42,0.00,CLR,,0.00,WeatherDisplay:10.37,2013-08-03 07:15:00,
2013-08-02 23:31:00,72.8,49.0,29.69,ENE,76,2.0,4.0,43,0.00,CLR,,0.00,WeatherDisplay:10.37,2013-08-03 07:31:00,
2013-08-02 23:45:00,72.3,48.5,29.69,ENE,73,2.0,4.0,43,0.00,CLR,,0.00,WeatherDisplay:10.37,2013-08-03 07:45:00,